sensor_id;sensor_type;location;lat;lon;timestamp;P1;durP1;ratioP1;P2;durP2;ratioP2
51782;SDS011;37845;53.196;5.638;2023-03-01T00:01:33;16.88;;;11.45;;
51782;SDS011;37845;53.196;5.638;2023-03-01T00:03:59;17.65;;;11.13;;
51782;SDS011;37845;53.196;5.638;2023-03-01T00:08:51;23.73;;;11.93;;
51782;SDS011;37845;53.196;5.638;2023-03-01T00:13:48;22.70;;;12.63;;
51782;SDS011;37845;53.196;5.638;2023-03-01T00:16:17;28.17;;;15.45;;
51782;SDS011;37845;53.196;5.638;2023-03-01T00:18:47;31.45;;;14.93;;
51782;SDS011;37845;53.196;5.638;2023-03-01T00:21:12;28.25;;;16.90;;
51782;SDS011;37845;53.196;5.638;2023-03-01T00:23:38;34.58;;;20.05;;
51782;SDS011;37845;53.196;5.638;2023-03-01T00:26:06;27.50;;;14.38;;
51782;SDS011;37845;53.196;5.638;2023-03-01T00:28:33;24.45;;;12.93;;
51782;SDS011;37845;53.196;5.638;2023-03-01T00:31:05;23.15;;;12.90;;
51782;SDS011;37845;53.196;5.638;2023-03-01T00:33:32;26.67;;;14.57;;
51782;SDS011;37845;53.196;5.638;2023-03-01T00:35:59;31.15;;;14.73;;
51782;SDS011;37845;53.196;5.638;2023-03-01T00:38:25;23.70;;;14.05;;
51782;SDS011;37845;53.196;5.638;2023-03-01T00:43:17;27.20;;;16.13;;
51782;SDS011;37845;53.196;5.638;2023-03-01T00:45:43;27.00;;;16.73;;
51782;SDS011;37845;53.196;5.638;2023-03-01T00:48:09;84.05;;;22.63;;
51782;SDS011;37845;53.196;5.638;2023-03-01T00:50:35;50.88;;;23.27;;
51782;SDS011;37845;53.196;5.638;2023-03-01T00:53:01;71.03;;;28.85;;
51782;SDS011;37845;53.196;5.638;2023-03-01T00:55:27;59.83;;;24.10;;
51782;SDS011;37845;53.196;5.638;2023-03-01T00:57:52;59.28;;;25.92;;
51782;SDS011;37845;53.196;5.638;2023-03-01T01:00:19;59.78;;;22.70;;
51782;SDS011;37845;53.196;5.638;2023-03-01T01:02:55;51.35;;;20.77;;
51782;SDS011;37845;53.196;5.638;2023-03-01T01:05:20;51.72;;;21.88;;
51782;SDS011;37845;53.196;5.638;2023-03-01T01:07:46;50.95;;;24.00;;
51782;SDS011;37845;53.196;5.638;2023-03-01T01:10:13;38.75;;;19.98;;
51782;SDS011;37845;53.196;5.638;2023-03-01T01:12:43;56.15;;;22.33;;
51782;SDS011;37845;53.196;5.638;2023-03-01T01:15:12;35.47;;;20.20;;
51782;SDS011;37845;53.196;5.638;2023-03-01T01:17:41;47.33;;;21.08;;
51782;SDS011;37845;53.196;5.638;2023-03-01T01:20:07;41.85;;;21.23;;
51782;SDS011;37845;53.196;5.638;2023-03-01T01:26:22;31.52;;;17.65;;
51782;SDS011;37845;53.196;5.638;2023-03-01T01:28:49;29.75;;;17.60;;
51782;SDS011;37845;53.196;5.638;2023-03-01T01:31:16;34.88;;;18.70;;
51782;SDS011;37845;53.196;5.638;2023-03-01T01:33:43;35.33;;;17.45;;
51782;SDS011;37845;53.196;5.638;2023-03-01T01:36:08;47.53;;;18.65;;
51782;SDS011;37845;53.196;5.638;2023-03-01T01:38:35;63.80;;;21.70;;
51782;SDS011;37845;53.196;5.638;2023-03-01T01:41:02;66.95;;;22.63;;
51782;SDS011;37845;53.196;5.638;2023-03-01T01:43:45;43.55;;;19.48;;
51782;SDS011;37845;53.196;5.638;2023-03-01T01:46:34;32.08;;;16.30;;
51782;SDS011;37845;53.196;5.638;2023-03-01T01:49:04;29.13;;;17.27;;
51782;SDS011;37845;53.196;5.638;2023-03-01T01:51:55;28.00;;;14.90;;
51782;SDS011;37845;53.196;5.638;2023-03-01T01:57:22;26.67;;;15.32;;
51782;SDS011;37845;53.196;5.638;2023-03-01T01:59:58;27.23;;;14.60;;
51782;SDS011;37845;53.196;5.638;2023-03-01T02:02:33;25.63;;;14.50;;
51782;SDS011;37845;53.196;5.638;2023-03-01T02:05:05;23.10;;;12.73;;
51782;SDS011;37845;53.196;5.638;2023-03-01T02:07:38;24.38;;;15.00;;
51782;SDS011;37845;53.196;5.638;2023-03-01T02:10:05;28.10;;;15.23;;
51782;SDS011;37845;53.196;5.638;2023-03-01T02:12:31;36.70;;;18.90;;
51782;SDS011;37845;53.196;5.638;2023-03-01T02:14:59;33.15;;;19.55;;
51782;SDS011;37845;53.196;5.638;2023-03-01T02:17:24;38.92;;;19.77;;
51782;SDS011;37845;53.196;5.638;2023-03-01T02:22:32;29.10;;;15.25;;
51782;SDS011;37845;53.196;5.638;2023-03-01T02:30:42;28.48;;;15.35;;
51782;SDS011;37845;53.196;5.638;2023-03-01T02:33:28;29.50;;;16.15;;
51782;SDS011;37845;53.196;5.638;2023-03-01T02:36:01;23.58;;;14.40;;
51782;SDS011;37845;53.196;5.638;2023-03-01T02:38:31;20.92;;;12.90;;
51782;SDS011;37845;53.196;5.638;2023-03-01T02:40:57;24.17;;;13.80;;
51782;SDS011;37845;53.196;5.638;2023-03-01T02:43:31;23.80;;;14.93;;
51782;SDS011;37845;53.196;5.638;2023-03-01T02:45:59;29.13;;;16.30;;
51782;SDS011;37845;53.196;5.638;2023-03-01T02:48:46;28.60;;;15.38;;
51782;SDS011;37845;53.196;5.638;2023-03-01T02:51:26;24.08;;;13.82;;
51782;SDS011;37845;53.196;5.638;2023-03-01T02:54:29;36.10;;;19.23;;
51782;SDS011;37845;53.196;5.638;2023-03-01T02:57:01;57.05;;;23.40;;
51782;SDS011;37845;53.196;5.638;2023-03-01T02:59:31;69.07;;;23.55;;
51782;SDS011;37845;53.196;5.638;2023-03-01T03:02:25;29.88;;;15.70;;
51782;SDS011;37845;53.196;5.638;2023-03-01T03:07:40;42.63;;;16.40;;
51782;SDS011;37845;53.196;5.638;2023-03-01T03:10:09;77.68;;;24.73;;
51782;SDS011;37845;53.196;5.638;2023-03-01T03:12:37;63.90;;;22.02;;
51782;SDS011;37845;53.196;5.638;2023-03-01T03:15:07;76.70;;;26.23;;
51782;SDS011;37845;53.196;5.638;2023-03-01T03:17:41;58.72;;;21.38;;
51782;SDS011;37845;53.196;5.638;2023-03-01T03:20:08;35.35;;;16.13;;
51782;SDS011;37845;53.196;5.638;2023-03-01T03:22:42;24.88;;;12.85;;
51782;SDS011;37845;53.196;5.638;2023-03-01T03:25:08;52.22;;;19.05;;
51782;SDS011;37845;53.196;5.638;2023-03-01T03:27:40;30.92;;;16.23;;
51782;SDS011;37845;53.196;5.638;2023-03-01T03:30:09;123.03;;;37.65;;
51782;SDS011;37845;53.196;5.638;2023-03-01T03:32:38;103.35;;;37.30;;
51782;SDS011;37845;53.196;5.638;2023-03-01T03:35:05;39.65;;;16.92;;
51782;SDS011;37845;53.196;5.638;2023-03-01T03:37:40;114.53;;;36.13;;
51782;SDS011;37845;53.196;5.638;2023-03-01T03:40:26;56.83;;;20.85;;
51782;SDS011;37845;53.196;5.638;2023-03-01T03:42:53;33.65;;;16.75;;
51782;SDS011;37845;53.196;5.638;2023-03-01T03:45:19;43.92;;;17.92;;
51782;SDS011;37845;53.196;5.638;2023-03-01T03:47:45;24.95;;;14.30;;
51782;SDS011;37845;53.196;5.638;2023-03-01T03:50:12;52.25;;;19.48;;
51782;SDS011;37845;53.196;5.638;2023-03-01T03:52:39;20.70;;;12.90;;
51782;SDS011;37845;53.196;5.638;2023-03-01T03:55:09;31.13;;;16.95;;
51782;SDS011;37845;53.196;5.638;2023-03-01T03:57:36;26.95;;;14.50;;
51782;SDS011;37845;53.196;5.638;2023-03-01T04:00:03;18.95;;;13.30;;
51782;SDS011;37845;53.196;5.638;2023-03-01T04:02:30;25.00;;;13.40;;
51782;SDS011;37845;53.196;5.638;2023-03-01T04:04:56;35.30;;;15.25;;
51782;SDS011;37845;53.196;5.638;2023-03-01T04:07:22;24.08;;;14.63;;
51782;SDS011;37845;53.196;5.638;2023-03-01T04:09:51;31.35;;;16.40;;
51782;SDS011;37845;53.196;5.638;2023-03-01T04:12:17;26.40;;;14.25;;
51782;SDS011;37845;53.196;5.638;2023-03-01T04:14:48;24.90;;;15.35;;
51782;SDS011;37845;53.196;5.638;2023-03-01T04:17:14;44.42;;;21.90;;
51782;SDS011;37845;53.196;5.638;2023-03-01T04:19:39;41.58;;;19.90;;
51782;SDS011;37845;53.196;5.638;2023-03-01T04:22:05;38.55;;;18.65;;
51782;SDS011;37845;53.196;5.638;2023-03-01T04:24:37;76.82;;;27.02;;
51782;SDS011;37845;53.196;5.638;2023-03-01T04:27:03;87.05;;;23.45;;
51782;SDS011;37845;53.196;5.638;2023-03-01T04:29:29;34.67;;;17.98;;
51782;SDS011;37845;53.196;5.638;2023-03-01T04:31:55;45.65;;;22.80;;
51782;SDS011;37845;53.196;5.638;2023-03-01T04:34:20;29.55;;;17.65;;
51782;SDS011;37845;53.196;5.638;2023-03-01T04:36:46;60.00;;;23.55;;
51782;SDS011;37845;53.196;5.638;2023-03-01T04:39:12;41.80;;;20.13;;
51782;SDS011;37845;53.196;5.638;2023-03-01T04:41:38;33.00;;;17.35;;
51782;SDS011;37845;53.196;5.638;2023-03-01T04:44:05;38.50;;;18.23;;
51782;SDS011;37845;53.196;5.638;2023-03-01T04:46:31;31.88;;;16.35;;
51782;SDS011;37845;53.196;5.638;2023-03-01T04:48:57;43.38;;;20.25;;
51782;SDS011;37845;53.196;5.638;2023-03-01T04:51:23;33.92;;;18.13;;
51782;SDS011;37845;53.196;5.638;2023-03-01T04:56:15;23.20;;;13.88;;
51782;SDS011;37845;53.196;5.638;2023-03-01T04:58:43;24.02;;;15.45;;
51782;SDS011;37845;53.196;5.638;2023-03-01T05:01:14;22.92;;;13.60;;
51782;SDS011;37845;53.196;5.638;2023-03-01T05:03:42;33.00;;;14.80;;
51782;SDS011;37845;53.196;5.638;2023-03-01T05:06:09;55.38;;;17.35;;
51782;SDS011;37845;53.196;5.638;2023-03-01T05:08:39;53.88;;;22.85;;
51782;SDS011;37845;53.196;5.638;2023-03-01T05:11:06;51.17;;;21.48;;
51782;SDS011;37845;53.196;5.638;2023-03-01T05:13:34;67.05;;;24.58;;
51782;SDS011;37845;53.196;5.638;2023-03-01T05:16:04;48.38;;;22.33;;
51782;SDS011;37845;53.196;5.638;2023-03-01T05:18:32;43.25;;;20.73;;
51782;SDS011;37845;53.196;5.638;2023-03-01T05:21:03;40.90;;;18.63;;
51782;SDS011;37845;53.196;5.638;2023-03-01T05:23:41;57.90;;;23.15;;
51782;SDS011;37845;53.196;5.638;2023-03-01T05:26:08;40.83;;;21.00;;
51782;SDS011;37845;53.196;5.638;2023-03-01T05:28:34;44.53;;;20.83;;
51782;SDS011;37845;53.196;5.638;2023-03-01T05:31:00;38.65;;;19.45;;
51782;SDS011;37845;53.196;5.638;2023-03-01T05:33:26;60.20;;;25.58;;
51782;SDS011;37845;53.196;5.638;2023-03-01T05:35:53;44.60;;;21.05;;
51782;SDS011;37845;53.196;5.638;2023-03-01T05:40:46;40.10;;;21.85;;
51782;SDS011;37845;53.196;5.638;2023-03-01T05:43:17;41.25;;;17.50;;
51782;SDS011;37845;53.196;5.638;2023-03-01T05:45:46;43.28;;;20.95;;
51782;SDS011;37845;53.196;5.638;2023-03-01T05:48:12;81.13;;;23.23;;
51782;SDS011;37845;53.196;5.638;2023-03-01T05:50:42;32.10;;;15.82;;
51782;SDS011;37845;53.196;5.638;2023-03-01T05:53:13;40.92;;;17.75;;
51782;SDS011;37845;53.196;5.638;2023-03-01T05:58:13;41.05;;;16.50;;
51782;SDS011;37845;53.196;5.638;2023-03-01T06:00:41;50.42;;;19.15;;
51782;SDS011;37845;53.196;5.638;2023-03-01T06:03:09;47.92;;;18.13;;
51782;SDS011;37845;53.196;5.638;2023-03-01T06:05:36;45.40;;;17.73;;
51782;SDS011;37845;53.196;5.638;2023-03-01T06:08:02;23.15;;;14.73;;
51782;SDS011;37845;53.196;5.638;2023-03-01T06:10:35;32.80;;;17.17;;
51782;SDS011;37845;53.196;5.638;2023-03-01T06:25:40;36.03;;;19.65;;
51782;SDS011;37845;53.196;5.638;2023-03-01T06:28:06;44.10;;;18.25;;
51782;SDS011;37845;53.196;5.638;2023-03-01T06:30:31;27.00;;;14.57;;
51782;SDS011;37845;53.196;5.638;2023-03-01T06:32:57;34.25;;;13.77;;
51782;SDS011;37845;53.196;5.638;2023-03-01T06:35:26;32.65;;;14.75;;
51782;SDS011;37845;53.196;5.638;2023-03-01T06:37:55;21.48;;;13.40;;
51782;SDS011;37845;53.196;5.638;2023-03-01T06:40:21;51.85;;;13.63;;
51782;SDS011;37845;53.196;5.638;2023-03-01T06:42:53;18.45;;;11.10;;
51782;SDS011;37845;53.196;5.638;2023-03-01T06:45:20;21.48;;;12.80;;
51782;SDS011;37845;53.196;5.638;2023-03-01T06:47:47;22.23;;;11.45;;
51782;SDS011;37845;53.196;5.638;2023-03-01T06:50:36;20.30;;;12.65;;
51782;SDS011;37845;53.196;5.638;2023-03-01T06:54:01;19.48;;;13.52;;
51782;SDS011;37845;53.196;5.638;2023-03-01T06:56:41;46.33;;;25.88;;
51782;SDS011;37845;53.196;5.638;2023-03-01T06:59:13;25.40;;;16.90;;
51782;SDS011;37845;53.196;5.638;2023-03-01T07:04:14;21.55;;;16.33;;
51782;SDS011;37845;53.196;5.638;2023-03-01T07:06:42;23.88;;;13.23;;
51782;SDS011;37845;53.196;5.638;2023-03-01T07:09:07;28.17;;;14.77;;
51782;SDS011;37845;53.196;5.638;2023-03-01T07:11:36;25.08;;;16.08;;
51782;SDS011;37845;53.196;5.638;2023-03-01T07:14:14;32.08;;;18.75;;
51782;SDS011;37845;53.196;5.638;2023-03-01T07:19:10;28.75;;;19.25;;
51782;SDS011;37845;53.196;5.638;2023-03-01T07:21:36;29.52;;;18.30;;
51782;SDS011;37845;53.196;5.638;2023-03-01T07:24:05;27.08;;;16.02;;
51782;SDS011;37845;53.196;5.638;2023-03-01T07:26:31;30.13;;;14.57;;
51782;SDS011;37845;53.196;5.638;2023-03-01T07:29:04;26.23;;;16.05;;
51782;SDS011;37845;53.196;5.638;2023-03-01T07:31:43;22.30;;;15.98;;
51782;SDS011;37845;53.196;5.638;2023-03-01T07:34:19;22.95;;;15.05;;
51782;SDS011;37845;53.196;5.638;2023-03-01T07:37:32;23.48;;;17.38;;
51782;SDS011;37845;53.196;5.638;2023-03-01T07:40:09;25.08;;;16.75;;
51782;SDS011;37845;53.196;5.638;2023-03-01T07:42:41;24.50;;;17.08;;
51782;SDS011;37845;53.196;5.638;2023-03-01T07:45:43;21.35;;;15.63;;
51782;SDS011;37845;53.196;5.638;2023-03-01T07:48:32;25.00;;;15.18;;
51782;SDS011;37845;53.196;5.638;2023-03-01T07:51:27;23.88;;;13.13;;
51782;SDS011;37845;53.196;5.638;2023-03-01T07:54:03;19.80;;;13.82;;
51782;SDS011;37845;53.196;5.638;2023-03-01T07:56:38;17.23;;;11.27;;
51782;SDS011;37845;53.196;5.638;2023-03-01T07:59:03;19.15;;;12.48;;
51782;SDS011;37845;53.196;5.638;2023-03-01T08:01:29;23.00;;;12.52;;
51782;SDS011;37845;53.196;5.638;2023-03-01T08:03:55;27.38;;;18.23;;
51782;SDS011;37845;53.196;5.638;2023-03-01T08:06:21;36.38;;;20.50;;
51782;SDS011;37845;53.196;5.638;2023-03-01T08:08:47;29.67;;;15.18;;
51782;SDS011;37845;53.196;5.638;2023-03-01T08:11:22;23.60;;;14.13;;
51782;SDS011;37845;53.196;5.638;2023-03-01T08:13:48;27.10;;;14.05;;
51782;SDS011;37845;53.196;5.638;2023-03-01T08:16:15;35.15;;;19.48;;
51782;SDS011;37845;53.196;5.638;2023-03-01T08:18:44;34.30;;;17.25;;
51782;SDS011;37845;53.196;5.638;2023-03-01T08:21:14;36.58;;;17.63;;
51782;SDS011;37845;53.196;5.638;2023-03-01T08:23:41;28.92;;;18.13;;
51782;SDS011;37845;53.196;5.638;2023-03-01T08:26:09;36.42;;;19.05;;
51782;SDS011;37845;53.196;5.638;2023-03-01T08:28:37;24.00;;;16.65;;
51782;SDS011;37845;53.196;5.638;2023-03-01T08:31:26;30.95;;;18.25;;
51782;SDS011;37845;53.196;5.638;2023-03-01T08:33:58;26.90;;;18.00;;
51782;SDS011;37845;53.196;5.638;2023-03-01T08:44:19;29.80;;;18.27;;
51782;SDS011;37845;53.196;5.638;2023-03-01T08:46:46;35.78;;;21.55;;
51782;SDS011;37845;53.196;5.638;2023-03-01T08:49:19;39.78;;;22.10;;
51782;SDS011;37845;53.196;5.638;2023-03-01T08:51:45;33.03;;;20.92;;
51782;SDS011;37845;53.196;5.638;2023-03-01T08:54:15;37.35;;;24.77;;
51782;SDS011;37845;53.196;5.638;2023-03-01T08:56:55;44.70;;;26.40;;
51782;SDS011;37845;53.196;5.638;2023-03-01T08:59:35;49.28;;;27.73;;
51782;SDS011;37845;53.196;5.638;2023-03-01T09:02:03;38.60;;;22.48;;
51782;SDS011;37845;53.196;5.638;2023-03-01T09:04:39;38.47;;;24.55;;
51782;SDS011;37845;53.196;5.638;2023-03-01T09:07:05;42.47;;;25.63;;
51782;SDS011;37845;53.196;5.638;2023-03-01T09:09:31;50.13;;;29.10;;
51782;SDS011;37845;53.196;5.638;2023-03-01T09:11:57;49.55;;;30.00;;
51782;SDS011;37845;53.196;5.638;2023-03-01T09:14:23;51.60;;;29.73;;
51782;SDS011;37845;53.196;5.638;2023-03-01T09:16:48;51.25;;;28.90;;
51782;SDS011;37845;53.196;5.638;2023-03-01T09:19:17;49.25;;;25.35;;
51782;SDS011;37845;53.196;5.638;2023-03-01T09:21:45;47.28;;;26.48;;
51782;SDS011;37845;53.196;5.638;2023-03-01T09:24:17;48.10;;;26.75;;
51782;SDS011;37845;53.196;5.638;2023-03-01T09:26:45;47.72;;;26.63;;
51782;SDS011;37845;53.196;5.638;2023-03-01T09:29:11;46.45;;;26.73;;
51782;SDS011;37845;53.196;5.638;2023-03-01T09:31:38;56.95;;;27.75;;
51782;SDS011;37845;53.196;5.638;2023-03-01T09:34:07;49.33;;;26.25;;
51782;SDS011;37845;53.196;5.638;2023-03-01T09:36:38;43.35;;;26.13;;
51782;SDS011;37845;53.196;5.638;2023-03-01T09:39:07;47.15;;;24.48;;
51782;SDS011;37845;53.196;5.638;2023-03-01T09:44:13;43.25;;;26.48;;
51782;SDS011;37845;53.196;5.638;2023-03-01T09:46:50;58.90;;;27.70;;
51782;SDS011;37845;53.196;5.638;2023-03-01T09:49:18;46.42;;;28.48;;
51782;SDS011;37845;53.196;5.638;2023-03-01T09:51:57;40.95;;;24.65;;
51782;SDS011;37845;53.196;5.638;2023-03-01T09:54:28;41.55;;;26.02;;
51782;SDS011;37845;53.196;5.638;2023-03-01T09:57:00;45.45;;;24.98;;
51782;SDS011;37845;53.196;5.638;2023-03-01T10:05:45;48.38;;;24.52;;
51782;SDS011;37845;53.196;5.638;2023-03-01T10:08:30;42.58;;;23.08;;
51782;SDS011;37845;53.196;5.638;2023-03-01T10:11:16;41.55;;;25.73;;
51782;SDS011;37845;53.196;5.638;2023-03-01T10:13:54;49.58;;;24.52;;
51782;SDS011;37845;53.196;5.638;2023-03-01T10:19:39;48.63;;;26.48;;
51782;SDS011;37845;53.196;5.638;2023-03-01T10:22:21;43.47;;;25.83;;
51782;SDS011;37845;53.196;5.638;2023-03-01T10:32:43;46.92;;;25.52;;
51782;SDS011;37845;53.196;5.638;2023-03-01T10:35:23;46.00;;;27.40;;
51782;SDS011;37845;53.196;5.638;2023-03-01T10:38:08;42.05;;;23.80;;
51782;SDS011;37845;53.196;5.638;2023-03-01T10:40:55;38.67;;;24.20;;
51782;SDS011;37845;53.196;5.638;2023-03-01T10:49:22;35.47;;;22.95;;
51782;SDS011;37845;53.196;5.638;2023-03-01T10:51:47;35.38;;;22.48;;
51782;SDS011;37845;53.196;5.638;2023-03-01T10:54:25;41.33;;;23.27;;
51782;SDS011;37845;53.196;5.638;2023-03-01T10:56:55;37.78;;;22.35;;
51782;SDS011;37845;53.196;5.638;2023-03-01T10:59:33;35.85;;;22.73;;
51782;SDS011;37845;53.196;5.638;2023-03-01T11:07:51;37.58;;;21.80;;
51782;SDS011;37845;53.196;5.638;2023-03-01T11:10:29;35.10;;;21.83;;
51782;SDS011;37845;53.196;5.638;2023-03-01T11:13:06;41.95;;;22.73;;
51782;SDS011;37845;53.196;5.638;2023-03-01T11:15:33;37.25;;;21.63;;
51782;SDS011;37845;53.196;5.638;2023-03-01T11:17:59;32.78;;;19.73;;
51782;SDS011;37845;53.196;5.638;2023-03-01T11:23:13;34.53;;;22.15;;
51782;SDS011;37845;53.196;5.638;2023-03-01T11:25:41;34.30;;;20.77;;
51782;SDS011;37845;53.196;5.638;2023-03-01T11:28:13;36.00;;;20.98;;
51782;SDS011;37845;53.196;5.638;2023-03-01T11:33:41;34.60;;;21.33;;
51782;SDS011;37845;53.196;5.638;2023-03-01T11:36:19;34.85;;;20.63;;
51782;SDS011;37845;53.196;5.638;2023-03-01T11:39:18;32.28;;;19.15;;
51782;SDS011;37845;53.196;5.638;2023-03-01T11:42:40;31.83;;;19.45;;
51782;SDS011;37845;53.196;5.638;2023-03-01T11:45:08;36.22;;;20.05;;
51782;SDS011;37845;53.196;5.638;2023-03-01T11:53:12;29.20;;;20.80;;
51782;SDS011;37845;53.196;5.638;2023-03-01T11:56:03;30.02;;;19.08;;
51782;SDS011;37845;53.196;5.638;2023-03-01T12:01:42;31.77;;;20.45;;
51782;SDS011;37845;53.196;5.638;2023-03-01T12:06:57;28.50;;;19.48;;
51782;SDS011;37845;53.196;5.638;2023-03-01T12:12:43;39.67;;;21.15;;
51782;SDS011;37845;53.196;5.638;2023-03-01T12:17:41;33.30;;;19.13;;
51782;SDS011;37845;53.196;5.638;2023-03-01T12:26:10;30.10;;;19.05;;
51782;SDS011;37845;53.196;5.638;2023-03-01T12:51:26;36.33;;;19.90;;
51782;SDS011;37845;53.196;5.638;2023-03-01T12:53:57;32.45;;;19.67;;
51782;SDS011;37845;53.196;5.638;2023-03-01T12:56:29;33.35;;;20.48;;
51782;SDS011;37845;53.196;5.638;2023-03-01T12:59:02;39.47;;;21.13;;
51782;SDS011;37845;53.196;5.638;2023-03-01T13:05:00;36.10;;;19.70;;
51782;SDS011;37845;53.196;5.638;2023-03-01T13:07:39;33.60;;;21.48;;
51782;SDS011;37845;53.196;5.638;2023-03-01T13:17:53;39.45;;;21.45;;
51782;SDS011;37845;53.196;5.638;2023-03-01T13:20:29;38.40;;;21.50;;
51782;SDS011;37845;53.196;5.638;2023-03-01T13:23:07;33.83;;;22.35;;
51782;SDS011;37845;53.196;5.638;2023-03-01T13:33:47;30.10;;;20.13;;
51782;SDS011;37845;53.196;5.638;2023-03-01T13:38:56;35.13;;;22.20;;
51782;SDS011;37845;53.196;5.638;2023-03-01T13:44:46;33.60;;;20.65;;
51782;SDS011;37845;53.196;5.638;2023-03-01T13:47:00;31.55;;;22.35;;
51782;SDS011;37845;53.196;5.638;2023-03-01T13:52:34;36.28;;;22.17;;
51782;SDS011;37845;53.196;5.638;2023-03-01T13:58:16;37.33;;;21.65;;
51782;SDS011;37845;53.196;5.638;2023-03-01T14:01:06;35.60;;;20.40;;
51782;SDS011;37845;53.196;5.638;2023-03-01T14:03:39;32.00;;;21.77;;
51782;SDS011;37845;53.196;5.638;2023-03-01T14:06:08;30.08;;;19.60;;
51782;SDS011;37845;53.196;5.638;2023-03-01T14:08:38;31.45;;;18.83;;
51782;SDS011;37845;53.196;5.638;2023-03-01T14:16:24;30.73;;;18.92;;
51782;SDS011;37845;53.196;5.638;2023-03-01T14:19:14;28.33;;;17.30;;
51782;SDS011;37845;53.196;5.638;2023-03-01T14:21:43;32.25;;;19.05;;
51782;SDS011;37845;53.196;5.638;2023-03-01T14:24:20;28.67;;;19.33;;
51782;SDS011;37845;53.196;5.638;2023-03-01T14:26:48;31.08;;;18.23;;
51782;SDS011;37845;53.196;5.638;2023-03-01T14:32:20;27.60;;;19.10;;
51782;SDS011;37845;53.196;5.638;2023-03-01T14:34:49;27.55;;;19.17;;
51782;SDS011;37845;53.196;5.638;2023-03-01T14:39:41;32.25;;;18.88;;
51782;SDS011;37845;53.196;5.638;2023-03-01T14:42:07;34.95;;;20.55;;
51782;SDS011;37845;53.196;5.638;2023-03-01T14:44:32;27.20;;;17.70;;
51782;SDS011;37845;53.196;5.638;2023-03-01T14:47:02;28.65;;;17.70;;
51782;SDS011;37845;53.196;5.638;2023-03-01T14:49:30;34.97;;;18.88;;
51782;SDS011;37845;53.196;5.638;2023-03-01T14:52:04;26.85;;;16.65;;
51782;SDS011;37845;53.196;5.638;2023-03-01T14:54:37;30.38;;;19.40;;
51782;SDS011;37845;53.196;5.638;2023-03-01T14:57:14;31.15;;;18.52;;
51782;SDS011;37845;53.196;5.638;2023-03-01T14:59:41;31.73;;;19.48;;
51782;SDS011;37845;53.196;5.638;2023-03-01T15:02:11;34.90;;;19.67;;
51782;SDS011;37845;53.196;5.638;2023-03-01T15:04:48;29.52;;;16.40;;
51782;SDS011;37845;53.196;5.638;2023-03-01T15:07:17;29.98;;;19.33;;
51782;SDS011;37845;53.196;5.638;2023-03-01T15:09:43;28.92;;;16.70;;
51782;SDS011;37845;53.196;5.638;2023-03-01T15:14:57;31.33;;;18.95;;
51782;SDS011;37845;53.196;5.638;2023-03-01T15:17:33;27.65;;;17.58;;
51782;SDS011;37845;53.196;5.638;2023-03-01T15:20:22;29.38;;;15.95;;
51782;SDS011;37845;53.196;5.638;2023-03-01T15:22:51;38.58;;;17.40;;
51782;SDS011;37845;53.196;5.638;2023-03-01T15:25:20;26.98;;;15.82;;
51782;SDS011;37845;53.196;5.638;2023-03-01T15:27:51;31.85;;;19.00;;
51782;SDS011;37845;53.196;5.638;2023-03-01T15:30:33;26.95;;;18.45;;
51782;SDS011;37845;53.196;5.638;2023-03-01T15:36:00;24.10;;;15.57;;
51782;SDS011;37845;53.196;5.638;2023-03-01T15:38:54;21.10;;;14.55;;
51782;SDS011;37845;53.196;5.638;2023-03-01T15:41:38;24.58;;;14.25;;
51782;SDS011;37845;53.196;5.638;2023-03-01T15:44:32;21.73;;;14.23;;
51782;SDS011;37845;53.196;5.638;2023-03-01T15:47:00;23.75;;;13.30;;
51782;SDS011;37845;53.196;5.638;2023-03-01T15:52:08;23.95;;;13.52;;
51782;SDS011;37845;53.196;5.638;2023-03-01T15:54:44;20.45;;;12.02;;
51782;SDS011;37845;53.196;5.638;2023-03-01T15:57:13;27.08;;;13.23;;
51782;SDS011;37845;53.196;5.638;2023-03-01T15:59:40;25.73;;;13.00;;
51782;SDS011;37845;53.196;5.638;2023-03-01T16:02:10;30.58;;;14.18;;
51782;SDS011;37845;53.196;5.638;2023-03-01T16:04:38;23.08;;;13.43;;
51782;SDS011;37845;53.196;5.638;2023-03-01T16:07:04;23.00;;;12.32;;
51782;SDS011;37845;53.196;5.638;2023-03-01T16:09:30;19.33;;;12.75;;
51782;SDS011;37845;53.196;5.638;2023-03-01T16:11:56;21.08;;;13.20;;
51782;SDS011;37845;53.196;5.638;2023-03-01T16:14:21;27.58;;;16.15;;
51782;SDS011;37845;53.196;5.638;2023-03-01T16:16:47;31.42;;;17.35;;
51782;SDS011;37845;53.196;5.638;2023-03-01T16:19:14;27.00;;;15.70;;
51782;SDS011;37845;53.196;5.638;2023-03-01T16:21:41;42.22;;;18.13;;
51782;SDS011;37845;53.196;5.638;2023-03-01T16:24:08;34.45;;;16.33;;
51782;SDS011;37845;53.196;5.638;2023-03-01T16:26:37;29.63;;;14.95;;
51782;SDS011;37845;53.196;5.638;2023-03-01T16:29:04;26.45;;;16.27;;
51782;SDS011;37845;53.196;5.638;2023-03-01T16:31:30;30.20;;;17.67;;
51782;SDS011;37845;53.196;5.638;2023-03-01T16:37:18;25.92;;;17.08;;
51782;SDS011;37845;53.196;5.638;2023-03-01T16:39:44;30.60;;;17.02;;
51782;SDS011;37845;53.196;5.638;2023-03-01T16:42:10;33.58;;;18.25;;
51782;SDS011;37845;53.196;5.638;2023-03-01T16:44:35;31.05;;;17.40;;
51782;SDS011;37845;53.196;5.638;2023-03-01T16:47:01;34.97;;;18.15;;
51782;SDS011;37845;53.196;5.638;2023-03-01T16:49:27;33.30;;;19.75;;
51782;SDS011;37845;53.196;5.638;2023-03-01T16:51:53;31.75;;;20.10;;
51782;SDS011;37845;53.196;5.638;2023-03-01T16:54:19;36.35;;;20.02;;
51782;SDS011;37845;53.196;5.638;2023-03-01T16:56:44;43.47;;;21.58;;
51782;SDS011;37845;53.196;5.638;2023-03-01T16:59:10;41.28;;;20.33;;
51782;SDS011;37845;53.196;5.638;2023-03-01T17:01:36;39.25;;;21.02;;
51782;SDS011;37845;53.196;5.638;2023-03-01T17:04:04;31.85;;;20.08;;
51782;SDS011;37845;53.196;5.638;2023-03-01T17:06:33;31.17;;;20.75;;
51782;SDS011;37845;53.196;5.638;2023-03-01T17:08:59;42.40;;;21.02;;
51782;SDS011;37845;53.196;5.638;2023-03-01T17:11:24;48.95;;;23.10;;
51782;SDS011;37845;53.196;5.638;2023-03-01T17:13:50;43.67;;;21.70;;
51782;SDS011;37845;53.196;5.638;2023-03-01T17:16:17;30.77;;;21.48;;
51782;SDS011;37845;53.196;5.638;2023-03-01T17:18:44;31.58;;;20.60;;
51782;SDS011;37845;53.196;5.638;2023-03-01T17:21:11;36.85;;;21.55;;
51782;SDS011;37845;53.196;5.638;2023-03-01T17:23:38;34.28;;;18.02;;
51782;SDS011;37845;53.196;5.638;2023-03-01T17:26:05;31.95;;;19.10;;
51782;SDS011;37845;53.196;5.638;2023-03-01T17:30:58;38.43;;;20.13;;
51782;SDS011;37845;53.196;5.638;2023-03-01T17:33:25;38.50;;;21.73;;
51782;SDS011;37845;53.196;5.638;2023-03-01T17:35:51;36.78;;;20.85;;
51782;SDS011;37845;53.196;5.638;2023-03-01T17:38:17;35.92;;;21.33;;
51782;SDS011;37845;53.196;5.638;2023-03-01T17:40:43;33.03;;;19.80;;
51782;SDS011;37845;53.196;5.638;2023-03-01T17:43:12;34.90;;;19.90;;
51782;SDS011;37845;53.196;5.638;2023-03-01T17:45:39;33.90;;;17.77;;
51782;SDS011;37845;53.196;5.638;2023-03-01T17:48:05;43.38;;;20.05;;
51782;SDS011;37845;53.196;5.638;2023-03-01T17:50:32;31.10;;;18.13;;
51782;SDS011;37845;53.196;5.638;2023-03-01T17:52:58;48.20;;;18.63;;
51782;SDS011;37845;53.196;5.638;2023-03-01T17:55:24;33.95;;;20.50;;
51782;SDS011;37845;53.196;5.638;2023-03-01T17:57:50;40.53;;;18.52;;
51782;SDS011;37845;53.196;5.638;2023-03-01T18:00:15;33.28;;;20.67;;